Time;durP1;ratioP1;P1;durP2;ratioP2;P2;SDS_P1;SDS_P2;PMS_P1;PMS_P2;Temp;Humidity;BMP_temperature;BMP_pressure;BME280_temperature;BME280_humidity;BME280_pressure;Samples;Min_cycle;Max_cycle;Signal;HPM_P1;HPM_P2
2024/01/06 00:01:19;;;;;;;9.80;4.97;;;;;;;2.39;100.00;100453.09;7398341;19;19926;-67
2024/01/06 00:03:47;;;;;;;8.07;6.07;;;;;;;2.38;100.00;100451.41;7399389;19;20579;-67
2024/01/06 00:06:19;;;;;;;7.35;5.10;;;;;;;2.39;100.00;100466.41;7398005;19;19929;-66
2024/01/06 00:08:53;;;;;;;8.82;5.82;;;;;;;2.37;100.00;100462.19;7399242;19;19923;-66
2024/01/06 00:11:22;;;;;;;7.95;5.35;;;;;;;2.36;100.00;100468.47;7398148;19;19915;-67
2024/01/06 00:14:10;;;;;;;7.70;5.60;;;;;;;2.35;100.00;100467.63;7396675;19;19922;-67
2024/01/06 00:16:40;;;;;;;7.43;5.18;;;;;;;2.35;100.00;100470.28;7399330;19;19994;-66
2024/01/06 00:19:08;;;;;;;8.02;5.20;;;;;;;2.36;100.00;100479.13;7397789;19;19932;-66
2024/01/06 00:21:39;;;;;;;8.25;5.20;;;;;;;2.34;100.00;100483.72;7398171;19;19927;-66
2024/01/06 00:24:30;;;;;;;7.32;4.75;;;;;;;2.32;100.00;100483.88;7396412;19;19926;-66
2024/01/06 00:26:58;;;;;;;7.30;5.32;;;;;;;2.29;100.00;100484.94;7397233;19;20014;-66
2024/01/06 00:29:27;;;;;;;8.57;5.20;;;;;;;2.29;100.00;100494.75;7397594;19;19923;-66
2024/01/06 00:31:55;;;;;;;8.57;4.90;;;;;;;2.29;100.00;100498.25;7397515;19;19926;-66
2024/01/06 00:34:24;;;;;;;6.32;4.70;;;;;;;2.31;100.00;100494.63;7399330;19;19946;-66
2024/01/06 00:36:55;;;;;;;6.63;4.43;;;;;;;2.34;100.00;100494.34;7398568;19;19932;-66
2024/01/06 00:39:24;;;;;;;6.40;4.70;;;;;;;2.37;100.00;100496.75;7397908;19;19922;-66
2024/01/06 00:41:53;;;;;;;7.82;4.47;;;;;;;2.34;100.00;100500.50;7398414;19;20420;-67
2024/01/06 00:44:21;;;;;;;8.32;5.05;;;;;;;2.33;100.00;100511.28;7398746;19;19926;-66
2024/01/06 00:46:50;;;;;;;7.80;4.93;;;;;;;2.31;100.00;100516.72;7399828;19;19922;-66
2024/01/06 00:49:18;;;;;;;11.55;4.95;;;;;;;2.29;100.00;100516.84;7399532;19;19923;-66
2024/01/06 00:51:47;;;;;;;8.45;5.30;;;;;;;2.29;100.00;100521.31;7398436;19;19911;-66
2024/01/06 00:54:18;;;;;;;6.85;4.80;;;;;;;2.28;100.00;100528.47;7396737;19;19937;-67
2024/01/06 00:56:47;;;;;;;7.70;5.13;;;;;;;2.26;100.00;100532.22;7398641;19;19922;-66
2024/01/06 00:59:16;;;;;;;7.22;5.00;;;;;;;2.26;100.00;100538.38;7397866;19;19918;-66
2024/01/06 01:01:44;;;;;;;6.47;4.47;;;;;;;2.23;100.00;100536.00;7398612;19;20400;-66
2024/01/06 01:04:13;;;;;;;7.43;5.00;;;;;;;2.22;100.00;100536.97;7398044;19;19915;-66
2024/01/06 01:06:42;;;;;;;7.18;4.68;;;;;;;2.22;100.00;100538.78;7398892;19;19926;-67
2024/01/06 01:09:13;;;;;;;8.57;5.03;;;;;;;2.22;100.00;100544.09;7397703;19;20344;-66
2024/01/06 01:11:44;;;;;;;7.85;4.80;;;;;;;2.20;100.00;100548.72;7397884;19;20611;-67
2024/01/06 01:14:13;;;;;;;7.82;4.47;;;;;;;2.16;100.00;100552.56;7398007;19;19919;-66
2024/01/06 01:16:42;;;;;;;5.35;4.07;;;;;;;2.16;100.00;100553.41;7398756;19;19950;-66
2024/01/06 01:19:11;;;;;;;7.97;4.65;;;;;;;2.17;100.00;100556.94;7397624;19;19923;-66
2024/01/06 01:21:40;;;;;;;7.15;4.00;;;;;;;2.15;100.00;100562.38;7398595;19;20403;-67
2024/01/06 01:24:08;;;;;;;7.30;4.43;;;;;;;2.16;100.00;100568.50;7396821;19;19946;-67
2024/01/06 01:26:37;;;;;;;6.38;4.40;;;;;;;2.16;100.00;100572.03;7397886;19;19951;-66
2024/01/06 01:29:08;;;;;;;6.03;4.10;;;;;;;2.13;100.00;100576.75;7397215;19;19930;-66
2024/01/06 01:31:37;;;;;;;7.32;5.20;;;;;;;2.12;100.00;100575.06;7398137;19;19922;-66
2024/01/06 01:34:06;;;;;;;7.82;5.50;;;;;;;2.12;100.00;100591.84;7397111;19;19919;-66
2024/01/06 01:36:34;;;;;;;7.93;4.60;;;;;;;2.09;100.00;100588.63;7397413;19;20392;-66
2024/01/06 01:39:03;;;;;;;7.88;4.93;;;;;;;2.11;100.00;100597.31;7394632;19;19930;-66
2024/01/06 01:41:32;;;;;;;6.63;4.75;;;;;;;2.10;100.00;100590.31;7397524;19;19922;-66
2024/01/06 01:44:00;;;;;;;7.90;4.60;;;;;;;2.10;100.00;100591.16;7397247;19;20412;-66
2024/01/06 01:46:32;;;;;;;6.53;4.43;;;;;;;2.08;100.00;100590.44;7396855;19;19918;-66
2024/01/06 01:49:03;;;;;;;6.95;4.78;;;;;;;2.05;100.00;100592.50;7397261;19;19918;-66
2024/01/06 01:51:35;;;;;;;8.32;4.70;;;;;;;2.03;100.00;100595.28;7395642;19;20294;-66
2024/01/06 01:54:06;;;;;;;6.20;4.30;;;;;;;2.01;100.00;100599.06;7397095;19;20332;-66
2024/01/06 01:56:36;;;;;;;8.48;4.35;;;;;;;2.00;100.00;100600.88;7397064;19;19922;-66
2024/01/06 01:59:08;;;;;;;7.43;4.80;;;;;;;1.99;100.00;100599.19;7396246;19;19922;-66
2024/01/06 02:01:39;;;;;;;;;;;;;;;1.92;100.00;100602.47;7399565;19;20033;-66
2024/01/06 02:04:08;;;;;;;7.38;3.92;;;;;;;1.94;100.00;100617.34;7396636;19;19941;-66
2024/01/06 02:06:37;;;;;;;5.78;3.70;;;;;;;1.92;100.00;100618.41;7398004;19;19922;-66
2024/01/06 02:09:05;;;;;;;8.18;4.68;;;;;;;1.92;100.00;100623.72;7392913;19;19919;-67
2024/01/06 02:11:34;;;;;;;8.10;4.35;;;;;;;1.92;100.00;100619.25;7397461;19;19918;-67
2024/01/06 02:14:03;;;;;;;5.82;3.72;;;;;;;1.91;100.00;100628.19;7396725;19;19926;-66
2024/01/06 02:16:31;;;;;;;6.38;4.10;;;;;;;1.89;100.00;100631.97;7397749;19;19918;-66
2024/01/06 02:19:03;;;;;;;6.57;3.60;;;;;;;1.85;100.00;100630.53;7395203;19;19918;-66
2024/01/06 02:21:34;;;;;;;4.88;3.25;;;;;;;1.83;100.00;100644.78;7396957;19;20733;-67
2024/01/06 02:24:05;;;;;;;8.50;4.47;;;;;;;1.80;100.00;100644.19;7393730;19;20256;-66
2024/01/06 02:26:34;;;;;;;7.05;4.18;;;;;;;1.78;100.00;100646.97;7397519;19;19922;-67
2024/01/06 02:29:02;;;;;;;6.75;3.90;;;;;;;1.76;100.00;100648.06;7396390;19;20616;-66
2024/01/06 02:31:31;;;;;;;6.90;3.97;;;;;;;1.75;100.00;100655.19;7395306;19;19926;-67
2024/01/06 02:34:00;;;;;;;6.82;3.92;;;;;;;1.79;100.00;100658.44;7396487;19;19957;-66
2024/01/06 02:36:28;;;;;;;7.82;3.78;;;;;;;1.80;100.00;100662.78;7396161;19;20324;-67
2024/01/06 02:38:57;;;;;;;6.82;4.10;;;;;;;1.82;100.00;100661.66;7395248;19;19962;-66
2024/01/06 02:41:48;;;;;;;6.05;3.90;;;;;;;1.81;100.00;100662.63;7394384;19;19923;-66
2024/01/06 02:44:16;;;;;;;5.68;3.33;;;;;;;1.80;100.00;100670.75;7394918;19;19919;-67
2024/01/06 02:46:45;;;;;;;6.53;4.15;;;;;;;1.78;100.00;100670.88;7396123;19;19919;-66
2024/01/06 02:49:14;;;;;;;6.43;4.03;;;;;;;1.79;100.00;100667.25;7395357;19;20338;-66
2024/01/06 02:51:42;;;;;;;7.53;4.35;;;;;;;1.80;100.00;100668.09;7396289;19;19943;-66
2024/01/06 02:54:11;;;;;;;5.90;4.00;;;;;;;1.79;100.00;100671.72;7395075;19;20289;-66
2024/01/06 02:56:40;;;;;;;6.78;3.42;;;;;;;1.80;100.00;100673.41;7395004;19;19918;-66
2024/01/06 02:59:11;;;;;;;6.68;3.95;;;;;;;1.77;100.00;100674.47;7394392;19;19982;-66
2024/01/06 03:01:40;;;;;;;6.18;4.00;;;;;;;1.77;100.00;100682.44;7394834;19;19946;-66
2024/01/06 03:04:09;;;;;;;7.13;4.10;;;;;;;1.77;100.00;100679.78;7396436;19;19915;-66
2024/01/06 03:06:38;;;;;;;5.75;4.07;;;;;;;1.76;100.00;100677.28;7394203;19;19915;-66
2024/01/06 03:09:26;;;;;;;6.07;3.85;;;;;;;1.78;100.00;100680.63;7391801;19;19925;-67
2024/01/06 03:11:55;;;;;;;6.95;4.30;;;;;;;1.81;100.00;100691.84;7394622;19;19933;-66
2024/01/06 03:14:26;;;;;;;5.85;3.70;;;;;;;1.82;100.00;100682.91;7393994;19;19926;-66
2024/01/06 03:16:54;;;;;;;5.80;3.67;;;;;;;1.84;100.00;100690.78;7395790;19;19926;-66
2024/01/06 03:19:25;;;;;;;5.68;3.63;;;;;;;1.82;100.00;100692.69;7395945;19;19925;-66
2024/01/06 03:21:54;;;;;;;6.68;3.40;;;;;;;1.79;100.00;100695.59;7400758;19;19922;-66
2024/01/06 03:24:24;;;;;;;4.82;3.00;;;;;;;1.76;100.00;100683.44;7400199;19;19926;-66
2024/01/06 03:26:52;;;;;;;5.45;3.38;;;;;;;1.75;100.00;100692.38;7400001;19;19923;-66
2024/01/06 03:29:21;;;;;;;5.60;3.65;;;;;;;1.75;100.00;100691.53;7400019;19;19950;-66
2024/01/06 03:31:52;;;;;;;5.35;3.55;;;;;;;1.75;100.00;100689.72;7400105;19;19923;-66
2024/01/06 03:34:21;;;;;;;6.13;3.53;;;;;;;1.74;100.00;100693.31;7399441;19;19923;-66
2024/01/06 03:36:47;;;;;;;4.38;3.45;;;;;;;1.73;100.00;100701.41;7399859;19;19943;-67
2024/01/06 03:39:15;;;;;;;5.43;3.33;;;;;;;1.67;100.00;100710.75;7398994;19;19919;-66
2024/01/06 03:41:44;;;;;;;4.60;2.85;;;;;;;1.63;100.00;100714.59;7399769;19;19978;-66
2024/01/06 03:44:12;;;;;;;6.45;3.67;;;;;;;1.57;100.00;100707.13;7399063;19;19922;-66
2024/01/06 03:46:41;;;;;;;6.28;3.47;;;;;;;1.58;100.00;100719.44;7394812;19;20529;-66
2024/01/06 03:49:12;;;;;;;6.00;3.22;;;;;;;1.56;100.00;100724.00;7399204;19;19946;-66
2024/01/06 03:51:41;;;;;;;4.80;3.08;;;;;;;1.55;100.00;100719.69;7398116;19;19943;-66
2024/01/06 03:54:09;;;;;;;5.93;3.30;;;;;;;1.54;100.00;100727.78;7399465;19;19922;-66
2024/01/06 03:56:58;;;;;;;5.13;3.25;;;;;;;1.55;100.00;100735.63;7396538;19;19923;-66
2024/01/06 03:59:27;;;;;;;4.85;3.30;;;;;;;1.57;100.00;100746.94;7395875;19;19918;-67
2024/01/06 04:01:55;;;;;;;6.78;3.55;;;;;;;1.58;100.00;100743.34;7397584;19;20261;-66
2024/01/06 04:04:27;;;;;;;4.55;3.10;;;;;;;1.62;100.00;100750.09;7399098;19;19919;-66
2024/01/06 04:06:56;;;;;;;5.10;2.67;;;;;;;1.61;100.00;100753.69;7399034;19;19954;-66
2024/01/06 04:09:25;;;;;;;6.40;3.28;;;;;;;1.58;100.00;100756.59;7397516;19;20358;-66
2024/01/06 04:11:53;;;;;;;4.78;2.97;;;;;;;1.56;100.00;100745.25;7399017;19;19931;-66
2024/01/06 04:14:22;;;;;;;5.78;3.28;;;;;;;1.58;100.00;100761.06;7398348;19;19922;-66
2024/01/06 04:16:52;;;;;;;6.45;3.50;;;;;;;1.54;100.00;100760.47;7397662;19;20376;-66
2024/01/06 04:19:20;;;;;;;4.47;3.13;;;;;;;1.51;100.00;100760.69;7396610;19;19978;-66
2024/01/06 04:21:55;;;;;;;5.80;3.15;;;;;;;1.49;100.00;100762.66;7399299;19;19923;-66
2024/01/06 04:24:23;;;;;;;5.93;3.40;;;;;;;1.46;100.00;100754.94;7398720;19;19915;-66
2024/01/06 04:26:52;;;;;;;5.75;3.40;;;;;;;1.46;100.00;100759.41;7398717;19;19926;-66
2024/01/06 04:29:21;;;;;;;6.25;3.65;;;;;;;1.46;100.00;100762.91;7398417;19;19918;-66
2024/01/06 04:31:49;;;;;;;4.88;3.22;;;;;;;1.49;100.00;100759.16;7397070;19;19922;-66
2024/01/06 04:34:18;;;;;;;5.38;3.47;;;;;;;1.46;100.00;100762.91;7398956;19;19927;-65
2024/01/06 04:36:48;;;;;;;5.07;2.83;;;;;;;1.46;100.00;100765.56;7398065;19;19918;-66
2024/01/06 04:39:19;;;;;;;5.30;3.33;;;;;;;1.45;100.00;100766.50;7398755;19;19915;-66
2024/01/06 04:41:48;;;;;;;5.63;3.58;;;;;;;1.46;100.00;100767.34;7397825;19;19918;-66
2024/01/06 04:44:16;;;;;;;7.90;2.97;;;;;;;1.44;100.00;100779.91;7399242;19;19923;-66
2024/01/06 04:46:45;;;;;;;6.35;3.63;;;;;;;1.43;100.00;100779.03;7396831;19;19918;-66
2024/01/06 04:49:13;;;;;;;5.45;3.33;;;;;;;1.42;100.00;100788.00;7398786;19;19919;-66
2024/01/06 04:51:42;;;;;;;4.57;3.35;;;;;;;1.38;100.00;100784.72;7398057;19;20020;-66
2024/01/06 04:54:10;;;;;;;6.47;3.40;;;;;;;1.38;100.00;100798.97;7399778;19;19919;-66
2024/01/06 04:56:42;;;;;;;5.78;3.30;;;;;;;1.38;100.00;100797.16;7398035;19;19919;-67
2024/01/06 04:59:30;;;;;;;5.13;3.50;;;;;;;1.39;100.00;100796.19;7395324;19;19919;-66
2024/01/06 05:02:00;;;;;;;7.05;3.72;;;;;;;1.43;100.00;100796.78;7399018;19;20616;-66
2024/01/06 05:04:30;;;;;;;4.78;3.28;;;;;;;1.44;100.00;100803.78;7397515;19;20435;-66
2024/01/06 05:06:59;;;;;;;6.55;3.38;;;;;;;1.44;100.00;100809.09;7398625;19;19940;-66
2024/01/06 05:09:28;;;;;;;5.53;3.60;;;;;;;1.44;100.00;100809.09;7396331;19;19970;-66
2024/01/06 05:11:59;;;;;;;5.90;3.60;;;;;;;1.44;100.00;100817.06;7398656;19;19943;-66
2024/01/06 05:14:28;;;;;;;6.78;3.50;;;;;;;1.43;100.00;100810.03;7397322;19;19922;-66
2024/01/06 05:16:56;;;;;;;6.05;4.00;;;;;;;1.42;100.00;100825.16;7398047;19;20451;-66
2024/01/06 05:19:25;;;;;;;6.93;3.58;;;;;;;1.45;100.00;100830.22;7397805;19;20583;-66
2024/01/06 05:21:54;;;;;;;5.00;3.03;;;;;;;1.45;100.00;100829.38;7398144;19;20328;-66
2024/01/06 05:24:23;;;;;;;7.93;4.53;;;;;;;1.46;100.00;100833.72;7397511;19;19948;-67
2024/01/06 05:26:52;;;;;;;5.40;3.03;;;;;;;1.46;100.00;100837.22;7397267;19;19922;-66
2024/01/06 05:29:24;;;;;;;6.63;3.97;;;;;;;1.46;100.00;100841.69;7397467;19;20423;-66
2024/01/06 05:31:53;;;;;;;7.32;3.55;;;;;;;1.46;100.00;100861.09;7398405;19;19926;-66
2024/01/06 05:34:21;;;;;;;6.00;3.33;;;;;;;1.46;100.00;100855.81;7398321;19;19918;-66
2024/01/06 05:36:51;;;;;;;5.63;3.25;;;;;;;1.47;100.00;100867.28;7396866;19;19918;-66
2024/01/06 05:39:20;;;;;;;6.68;4.13;;;;;;;1.47;100.00;100865.44;7397803;19;19935;-66
2024/01/06 05:41:48;;;;;;;6.93;3.75;;;;;;;1.46;100.00;100860.25;7396047;19;19918;-66
2024/01/06 05:44:17;;;;;;;5.55;3.33;;;;;;;1.46;100.00;100879.69;7392757;19;19926;-66
2024/01/06 05:46:48;;;;;;;5.15;2.97;;;;;;;1.47;100.00;100880.53;7395701;19;20297;-66
2024/01/06 05:49:17;;;;;;;6.32;3.47;;;;;;;1.46;100.00;100886.81;7396851;19;19926;-66
2024/01/06 05:51:47;;;;;;;5.65;3.60;;;;;;;1.46;100.00;100886.81;7395540;19;19947;-66
2024/01/06 05:54:16;;;;;;;5.45;3.42;;;;;;;1.43;100.00;100890.53;7395581;19;19988;-66
2024/01/06 05:56:44;;;;;;;6.20;4.07;;;;;;;1.44;100.00;100896.69;7394755;19;19925;-66
2024/01/06 05:59:14;;;;;;;5.97;3.55;;;;;;;1.43;100.00;100906.44;7395404;19;19958;-66
2024/01/06 06:01:43;;;;;;;6.20;3.95;;;;;;;1.44;100.00;100900.19;7395340;19;19924;-66
2024/01/06 06:04:14;;;;;;;6.90;4.28;;;;;;;1.43;100.00;100908.25;7396024;19;19943;-66
2024/01/06 06:06:43;;;;;;;6.30;3.95;;;;;;;1.44;100.00;100912.59;7395410;19;19919;-66
2024/01/06 06:09:34;;;;;;;5.82;4.15;;;;;;;1.43;100.00;100919.72;7393360;19;19929;-66
2024/01/06 06:12:02;;;;;;;6.63;3.67;;;;;;;1.44;100.00;100926.72;7395758;19;19922;-66
2024/01/06 06:14:31;;;;;;;6.95;3.90;;;;;;;1.43;100.00;100924.19;7396278;19;19969;-66
2024/01/06 06:17:00;;;;;;;5.80;3.80;;;;;;;1.42;100.00;100935.78;7394451;19;19952;-66
2024/01/06 06:19:51;;;;;;;6.63;3.70;;;;;;;1.42;100.00;100944.59;7394645;19;19919;-66
2024/01/06 06:22:21;;;;;;;5.60;3.47;;;;;;;1.42;100.00;100944.59;7395167;19;19922;-66
2024/01/06 06:24:50;;;;;;;6.93;4.20;;;;;;;1.44;100.00;100955.06;7395178;19;20315;-66
2024/01/06 06:27:19;;;;;;;5.80;3.63;;;;;;;1.42;100.00;100952.56;7396517;19;19930;-66
2024/01/06 06:29:47;;;;;;;6.03;3.95;;;;;;;1.38;100.00;100965.19;7393686;19;20218;-66
2024/01/06 06:32:16;;;;;;;4.90;3.15;;;;;;;1.39;100.00;100950.13;7395324;19;19915;-66
2024/01/06 06:34:45;;;;;;;6.47;3.60;;;;;;;1.41;100.00;100960.63;7396756;19;19918;-66
2024/01/06 06:37:16;;;;;;;5.05;3.47;;;;;;;1.40;100.00;100970.38;7393801;19;19994;-66
2024/01/06 06:39:45;;;;;;;5.65;3.70;;;;;;;1.38;100.00;100970.50;7396264;19;19919;-65
2024/01/06 06:42:14;;;;;;;5.93;3.60;;;;;;;1.41;100.00;100969.44;7395531;19;19919;-65
2024/01/06 06:44:42;;;;;;;5.00;3.13;;;;;;;1.42;100.00;100973.78;7397100;19;19918;-65
2024/01/06 06:47:11;;;;;;;5.35;3.35;;;;;;;1.41;100.00;100977.41;7395323;19;19947;-65
2024/01/06 06:49:39;;;;;;;5.47;3.42;;;;;;;1.40;100.00;100981.00;7395874;19;19947;-65
2024/01/06 06:52:08;;;;;;;6.18;3.90;;;;;;;1.41;100.00;100982.72;7395136;19;19925;-65
2024/01/06 06:54:39;;;;;;;6.90;3.92;;;;;;;1.40;100.00;100986.31;7402778;19;19938;-65
2024/01/06 06:57:28;;;;;;;5.47;3.60;;;;;;;1.41;100.00;100990.66;7407972;19;20259;-67
2024/01/06 06:59:56;;;;;;;5.55;3.22;;;;;;;1.38;100.00;100997.03;7409723;19;19922;-65
2024/01/06 07:02:25;;;;;;;5.32;3.05;;;;;;;1.37;100.00;101007.78;7409487;19;19930;-65
2024/01/06 07:04:54;;;;;;;7.93;3.53;;;;;;;1.37;100.00;101010.44;7409007;19;19930;-65
2024/01/06 07:07:22;;;;;;;5.97;3.53;;;;;;;1.37;100.00;101015.75;7409337;19;20410;-65
2024/01/06 07:09:53;;;;;;;5.20;3.40;;;;;;;1.38;100.00;101016.59;7407789;19;19922;-65
2024/01/06 07:12:22;;;;;;;6.13;3.28;;;;;;;1.38;100.00;101016.59;7409005;19;19914;-66
2024/01/06 07:14:51;;;;;;;5.50;3.67;;;;;;;1.38;100.00;101031.53;7408267;19;19946;-66
2024/01/06 07:17:19;;;;;;;6.22;3.40;;;;;;;1.40;100.00;101034.09;7408195;19;19923;-65
2024/01/06 07:19:48;;;;;;;5.88;3.67;;;;;;;1.42;100.00;101039.28;7408751;19;19926;-65
2024/01/06 07:22:18;;;;;;;6.28;3.92;;;;;;;1.41;100.00;101049.06;7407441;19;19939;-66
2024/01/06 07:24:47;;;;;;;6.55;3.70;;;;;;;1.39;100.00;101040.34;7407785;19;19926;-66
2024/01/06 07:27:19;;;;;;;7.43;3.67;;;;;;;1.40;100.00;101050.00;7407563;19;19970;-65
2024/01/06 07:29:48;;;;;;;5.97;3.65;;;;;;;1.42;100.00;101052.56;7408425;19;19923;-65
2024/01/06 07:32:16;;;;;;;6.18;4.00;;;;;;;1.41;100.00;101059.69;7407400;19;19926;-65
2024/01/06 07:34:45;;;;;;;4.93;3.22;;;;;;;1.40;100.00;101060.63;7409298;19;19922;-66
2024/01/06 07:37:14;;;;;;;5.03;3.78;;;;;;;1.42;100.00;101068.50;7407078;19;19922;-66
2024/01/06 07:39:42;;;;;;;6.40;3.38;;;;;;;1.43;100.00;101063.06;7408498;19;19943;-65
2024/01/06 07:42:11;;;;;;;7.28;3.97;;;;;;;1.41;100.00;101066.78;7405209;19;19926;-66
2024/01/06 07:44:42;;;;;;;7.05;3.78;;;;;;;1.41;100.00;101080.91;7407583;19;20006;-65
2024/01/06 07:47:11;;;;;;;6.88;4.18;;;;;;;1.41;100.00;101078.25;7407475;19;19918;-65
2024/01/06 07:49:39;;;;;;;6.25;3.80;;;;;;;1.44;100.00;101087.78;7407501;19;19915;-65
2024/01/06 07:52:08;;;;;;;7.07;4.00;;;;;;;1.43;100.00;101092.25;7407577;19;19922;-66
2024/01/06 07:54:37;;;;;;;5.45;3.30;;;;;;;1.43;100.00;101089.59;7407547;19;20419;-65
2024/01/06 07:57:06;;;;;;;6.25;3.83;;;;;;;1.44;100.00;101090.44;7407662;19;19955;-65
2024/01/06 07:59:34;;;;;;;7.72;3.88;;;;;;;1.41;100.00;101091.53;7406767;19;20187;-66
2024/01/06 08:02:07;;;;;;;5.93;3.75;;;;;;;1.40;100.00;101105.75;7407844;19;20300;-66
2024/01/06 08:04:36;;;;;;;7.55;4.10;;;;;;;1.40;100.00;101103.09;7406099;19;19919;-67
2024/01/06 08:07:04;;;;;;;8.32;4.47;;;;;;;1.40;100.00;101103.09;7397820;19;19921;-67
2024/01/06 08:09:33;;;;;;;5.60;3.88;;;;;;;1.40;100.00;101119.03;7397644;19;19950;-67
2024/01/06 08:12:03;;;;;;;6.95;4.43;;;;;;;1.37;100.00;101116.59;7399905;19;19976;-66
2024/01/06 08:14:31;;;;;;;8.00;4.20;;;;;;;1.36;100.00;101128.19;7398366;19;19921;-67
2024/01/06 08:17:00;;;;;;;6.53;4.40;;;;;;;1.34;100.00;101122.97;7398757;19;19918;-66
2024/01/06 08:19:33;;;;;;;8.65;4.75;;;;;;;1.35;100.00;101129.13;7398220;19;19923;-68
2024/01/06 08:22:01;;;;;;;6.45;4.50;;;;;;;1.36;100.00;101136.13;7399171;19;19919;-66
2024/01/06 08:24:30;;;;;;;6.57;4.07;;;;;;;1.36;100.00;101128.19;7399208;19;19948;-67
2024/01/06 08:26:59;;;;;;;6.85;4.50;;;;;;;1.36;100.00;101136.13;7399657;19;19933;-66
2024/01/06 08:29:28;;;;;;;9.63;5.18;;;;;;;1.37;100.00;101148.47;7399156;19;19919;-66
2024/01/06 08:31:56;;;;;;;7.60;4.75;;;;;;;1.35;100.00;101143.25;7399246;19;19923;-67
2024/01/06 08:34:25;;;;;;;8.13;4.68;;;;;;;1.33;100.00;101152.28;7399441;19;19923;-67
2024/01/06 08:36:56;;;;;;;8.43;5.45;;;;;;;1.31;100.00;101146.22;7398461;19;19918;-67
2024/01/06 08:39:25;;;;;;;8.40;5.07;;;;;;;1.27;100.00;101148.28;7399284;19;19950;-67
2024/01/06 08:41:53;;;;;;;13.02;6.50;;;;;;;1.25;100.00;101160.78;7397696;19;19922;-66
2024/01/06 08:44:22;;;;;;;10.68;6.88;;;;;;;1.23;100.00;101170.69;7399510;19;19919;-67
2024/01/06 08:46:50;;;;;;;9.48;6.03;;;;;;;1.24;100.00;101169.72;7397832;19;20349;-67
2024/01/06 08:49:19;;;;;;;9.68;6.05;;;;;;;1.25;100.00;101170.56;7398857;19;19926;-67
2024/01/06 08:51:48;;;;;;;13.45;7.18;;;;;;;1.24;100.00;101174.19;7398235;19;19918;-66
2024/01/06 08:54:19;;;;;;;13.90;7.65;;;;;;;1.22;100.00;101179.59;7399233;19;19947;-66
2024/01/06 08:56:47;;;;;;;20.17;9.45;;;;;;;1.21;100.00;101187.66;7397789;19;20385;-67
2024/01/06 08:59:16;;;;;;;11.55;6.57;;;;;;;1.22;100.00;101189.34;7397545;19;20600;-66
2024/01/06 09:01:44;;;;;;;9.77;5.53;;;;;;;1.17;100.00;101189.69;7397907;19;19918;-67
2024/01/06 09:04:14;;;;;;;10.02;5.53;;;;;;;1.14;100.00;101205.81;7399193;19;19918;-67
2024/01/06 09:06:43;;;;;;;8.88;5.22;;;;;;;1.16;100.00;101200.41;7397262;19;20406;-67
2024/01/06 09:09:13;;;;;;;9.80;5.05;;;;;;;1.19;100.00;101203.69;7398329;19;19930;-66
2024/01/06 09:11:44;;;;;;;9.07;5.00;;;;;;;1.24;100.00;101216.66;7398678;19;19934;-66
2024/01/06 09:14:13;;;;;;;9.30;4.75;;;;;;;1.24;100.00;101227.25;7397933;19;20499;-67
2024/01/06 09:16:41;;;;;;;8.70;4.75;;;;;;;1.24;100.00;101227.25;7398249;19;19919;-67
2024/01/06 09:19:10;;;;;;;6.82;4.45;;;;;;;1.24;100.00;101237.88;7397653;19;19946;-66
2024/01/06 09:21:39;;;;;;;6.85;4.18;;;;;;;1.25;100.00;101235.09;7397275;19;20026;-67
2024/01/06 09:24:08;;;;;;;7.85;4.68;;;;;;;1.27;100.00;101235.00;7396891;19;19959;-67
2024/01/06 09:26:37;;;;;;;9.57;5.22;;;;;;;1.27;100.00;101238.50;7398305;19;19914;-66
2024/01/06 09:29:09;;;;;;;10.30;5.10;;;;;;;1.30;100.00;101240.06;7396189;19;19918;-67
2024/01/06 09:31:37;;;;;;;7.53;4.85;;;;;;;1.30;100.00;101242.72;7397971;19;20597;-67
2024/01/06 09:34:06;;;;;;;8.00;4.57;;;;;;;1.30;100.00;101237.41;7396992;19;19918;-67
2024/01/06 09:36:35;;;;;;;7.22;4.38;;;;;;;1.32;100.00;101240.81;7397226;19;20274;-67
2024/01/06 09:39:04;;;;;;;8.32;5.10;;;;;;;1.33;100.00;101248.69;7396868;19;19943;-66
2024/01/06 09:41:33;;;;;;;8.70;5.43;;;;;;;1.38;100.00;101250.16;7396494;19;19922;-67
2024/01/06 09:44:02;;;;;;;8.13;4.60;;;;;;;1.38;100.00;101257.16;7396984;19;19910;-67
2024/01/06 09:46:35;;;;;;;9.18;5.05;;;;;;;1.38;100.00;101254.50;7397493;19;20350;-66
2024/01/06 09:49:05;;;;;;;8.15;5.00;;;;;;;1.41;100.00;101258.75;7398207;19;19923;-67
2024/01/06 09:51:33;;;;;;;9.32;5.68;;;;;;;1.40;100.00;101262.34;7396538;19;19942;-67
2024/01/06 09:54:26;;;;;;;11.43;6.63;;;;;;;1.40;100.00;101270.31;7395907;19;19937;-67
2024/01/06 09:56:55;;;;;;;11.32;6.10;;;;;;;1.42;100.00;101268.44;7397141;19;20022;-67
2024/01/06 09:59:46;;;;;;;9.35;5.18;;;;;;;1.44;100.00;101260.34;7392816;19;19918;-66
2024/01/06 10:02:20;;;;;;;8.30;5.57;;;;;;;1.46;100.00;101269.06;7397007;19;19926;-66
2024/01/06 10:04:49;;;;;;;9.10;6.03;;;;;;;1.44;100.00;101270.94;7395528;19;19925;-66
2024/01/06 10:07:37;;;;;;;9.68;5.43;;;;;;;1.44;100.00;101270.94;7394331;19;20353;-67
2024/01/06 10:10:10;;;;;;;12.50;7.05;;;;;;;1.44;100.00;101276.25;7396744;19;19946;-67
2024/01/06 10:12:40;;;;;;;11.27;6.25;;;;;;;1.46;100.00;101271.72;7396003;19;19922;-67
2024/01/06 10:15:10;;;;;;;10.05;5.57;;;;;;;1.49;100.00;101274.13;7396228;19;19918;-67
2024/01/06 10:17:42;;;;;;;10.05;5.53;;;;;;;1.49;100.00;101274.97;7396211;19;19933;-67
2024/01/06 10:20:13;;;;;;;11.18;6.15;;;;;;;1.54;100.00;101282.63;7396591;19;19933;-66
2024/01/06 10:22:44;;;;;;;10.75;5.20;;;;;;;1.57;100.00;101287.72;7395925;19;20279;-67
2024/01/06 10:25:15;;;;;;;9.93;5.75;;;;;;;1.54;100.00;101294.09;7395828;19;20325;-67
2024/01/06 10:27:44;;;;;;;9.02;5.25;;;;;;;1.57;100.00;101293.88;7395997;19;20357;-67
2024/01/06 10:30:17;;;;;;;9.50;5.90;;;;;;;1.60;100.00;101304.25;7394704;19;19929;-67
2024/01/06 10:32:49;;;;;;;14.52;7.07;;;;;;;1.61;100.00;101299.81;7395801;19;19925;-67
2024/01/06 10:35:18;;;;;;;10.50;6.25;;;;;;;1.63;100.00;101303.22;7395341;19;19943;-67
2024/01/06 10:38:07;;;;;;;7.40;5.00;;;;;;;1.63;100.00;101309.38;7393686;19;19930;-67
2024/01/06 10:40:35;;;;;;;16.98;8.68;;;;;;;1.62;100.00;101312.97;7395471;19;20359;-67
2024/01/06 10:43:06;;;;;;;15.30;9.02;;;;;;;1.63;100.00;101308.53;7396041;19;19915;-67
2024/01/06 10:45:36;;;;;;;11.13;6.80;;;;;;;1.63;100.00;101308.53;7395523;19;20340;-67
2024/01/06 10:48:09;;;;;;;12.23;6.15;;;;;;;1.63;100.00;101317.34;7394996;19;19922;-68
2024/01/06 10:50:37;;;;;;;9.55;5.97;;;;;;;1.63;100.00;101319.16;7393729;19;20278;-67
2024/01/06 10:53:07;;;;;;;10.57;5.80;;;;;;;1.64;100.00;101311.06;7395447;19;19922;-68
2024/01/06 10:55:37;;;;;;;8.10;5.38;;;;;;;1.63;100.00;101313.84;7395011;19;19918;-67
2024/01/06 10:58:07;;;;;;;10.70;6.18;;;;;;;1.63;100.00;101322.66;7394341;19;20339;-67
2024/01/06 11:00:36;;;;;;;11.88;6.25;;;;;;;1.66;100.00;101317.13;7395305;19;19927;-67
2024/01/06 11:03:08;;;;;;;8.00;5.55;;;;;;;1.67;100.00;101313.50;7391923;19;19922;-68
2024/01/06 11:05:39;;;;;;;10.90;5.97;;;;;;;1.69;100.00;101322.19;7393929;19;19926;-67
2024/01/06 11:08:08;;;;;;;10.07;5.43;;;;;;;1.70;100.00;101320.41;7393549;19;19922;-67
2024/01/06 11:10:39;;;;;;;10.45;5.55;;;;;;;1.68;100.00;101322.31;7394019;19;19926;-67
2024/01/06 11:13:20;;;;;;;10.35;5.90;;;;;;;1.68;100.00;101325.00;7393680;19;19946;-67
2024/01/06 11:15:51;;;;;;;9.50;5.95;;;;;;;1.67;100.00;101328.59;7393978;19;19920;-67
2024/01/06 11:18:38;;;;;;;10.80;5.65;;;;;;;1.64;100.00;101321.66;7395579;19;20337;-67
2024/01/06 11:21:21;;;;;;;9.02;5.63;;;;;;;1.62;100.00;101328.91;7390746;19;22210;-67
2024/01/06 11:24:24;;;;;;;9.25;5.63;;;;;;;1.65;100.00;101331.34;7392213;19;19927;-67
2024/01/06 11:26:54;;;;;;;10.30;6.00;;;;;;;1.64;100.00;101340.25;7393299;19;19926;-67
2024/01/06 11:29:22;;;;;;;9.15;4.88;;;;;;;1.65;100.00;101333.16;7393454;19;19970;-67
2024/01/06 11:32:20;;;;;;;10.70;5.68;;;;;;;1.64;100.00;101337.59;7393161;19;19918;-67
2024/01/06 11:34:54;;;;;;;9.82;5.10;;;;;;;1.65;100.00;101338.47;7394527;19;19982;-67
2024/01/06 11:37:26;;;;;;;10.30;5.32;;;;;;;1.68;100.00;101343.56;7392884;19;20336;-67
2024/01/06 11:39:55;;;;;;;10.80;5.22;;;;;;;1.65;100.00;101336.66;7393801;19;19946;-67